createdAt,value
2016-06-04T00:00:00.855Z,0
2016-06-04T00:00:46.700Z,0
2016-06-04T00:02:00.906Z,0
2016-06-04T00:02:46.752Z,0
2016-06-04T00:03:46.772Z,0
2016-06-04T00:04:46.821Z,0
2016-06-04T00:05:46.824Z,0
2016-06-04T00:06:46.842Z,0
2016-06-04T00:08:01.063Z,0
2016-06-04T00:08:46.925Z,0
2016-06-04T00:09:46.928Z,0
2016-06-04T00:10:47.493Z,0
2016-06-04T00:11:49.979Z,0
2016-06-04T00:13:01.186Z,0
2016-06-04T00:13:47.017Z,0
2016-06-04T00:15:01.223Z,0
2016-06-04T00:16:01.256Z,0
2016-06-04T00:16:47.103Z,0
2016-06-04T00:17:47.137Z,0
2016-06-04T00:19:01.342Z,0
2016-06-04T00:20:01.377Z,0
2016-06-04T00:20:47.192Z,0
2016-06-04T00:21:47.242Z,0
2016-06-04T00:23:01.431Z,0
2016-06-04T00:23:47.278Z,0
2016-06-04T00:24:47.297Z,0
2016-06-04T00:26:01.503Z,0
2016-06-04T00:26:48.223Z,0
2016-06-04T00:28:01.554Z,0
2016-06-04T00:28:47.401Z,0
2016-06-04T00:29:47.419Z,0
2016-06-04T00:31:01.641Z,0
2016-06-04T00:31:47.471Z,0
2016-06-04T00:32:47.505Z,0
2016-06-04T00:33:47.539Z,0
2016-06-04T00:35:01.433Z,0
2016-06-04T00:35:47.560Z,0
2016-06-04T00:36:47.594Z,0
2016-06-04T00:37:47.628Z,0
2016-06-04T00:38:47.647Z,0
2016-06-04T00:39:47.680Z,0
2016-06-04T00:40:48.511Z,0
2016-06-04T00:42:01.827Z,0
2016-06-04T00:42:47.735Z,0
2016-06-04T00:43:47.769Z,0
2016-06-04T00:45:01.990Z,0
2016-06-04T00:46:02.010Z,0
2016-06-04T00:47:02.059Z,0
2016-06-04T00:48:02.062Z,0
2016-06-04T00:48:47.907Z,0
2016-06-04T00:49:47.926Z,0
2016-06-04T00:50:47.945Z,0
2016-06-04T00:51:47.962Z,0
2016-06-04T00:52:47.998Z,0
2016-06-04T00:54:02.218Z,0
2016-06-04T00:54:48.142Z,0
2016-06-04T00:55:48.036Z,0
2016-06-04T00:56:47.961Z,0
2016-06-04T00:57:48.120Z,0
2016-06-04T00:58:48.165Z,0
2016-06-04T00:59:48.218Z,0
2016-06-04T01:00:48.284Z,0
2016-06-04T01:02:02.509Z,0
2016-06-04T01:02:48.388Z,0
2016-06-04T01:03:48.448Z,0
2016-06-04T01:04:48.494Z,0
2016-06-04T01:05:48.509Z,0
2016-06-04T01:06:48.554Z,0
2016-06-04T01:08:02.788Z,0
2016-06-04T01:08:48.643Z,0
2016-06-04T01:09:48.650Z,0
2016-06-04T01:10:49.266Z,0
2016-06-04T01:11:48.804Z,0
2016-06-04T01:12:48.733Z,0
2016-06-04T01:13:48.770Z,0
2016-06-04T01:14:48.790Z,0
2016-06-04T01:15:48.841Z,0
2016-06-04T01:16:48.876Z,0
2016-06-04T01:17:48.881Z,0
2016-06-04T01:18:48.915Z,0
2016-06-04T01:20:03.121Z,0
2016-06-04T01:20:48.954Z,0
2016-06-04T01:21:48.972Z,0
2016-06-04T01:23:03.194Z,0
2016-06-04T01:23:49.041Z,0
2016-06-04T01:24:49.044Z,0
2016-06-04T01:26:49.315Z,0
2016-06-04T01:28:03.303Z,0
2016-06-04T01:28:49.149Z,0
2016-06-04T01:30:03.356Z,0
2016-06-04T01:31:03.374Z,0
2016-06-04T01:31:49.220Z,0
2016-06-04T01:34:03.444Z,0
2016-06-04T01:34:49.291Z,0
2016-06-04T01:35:49.168Z,0
2016-06-04T01:36:49.343Z,0
2016-06-04T01:37:49.378Z,0
2016-06-04T01:38:49.395Z,0
2016-06-04T01:39:49.429Z,0
2016-06-04T01:40:49.620Z,0
2016-06-04T01:41:49.669Z,0
2016-06-04T01:42:49.500Z,0
2016-06-04T01:43:49.519Z,0
2016-06-04T01:45:03.724Z,0
2016-06-04T01:45:49.492Z,0
2016-06-04T01:46:49.589Z,0
2016-06-04T01:47:49.623Z,0
2016-06-04T01:48:49.641Z,0
2016-06-04T01:50:03.847Z,0
2016-06-04T01:50:49.724Z,0
2016-06-04T01:51:49.711Z,0
2016-06-04T01:52:49.746Z,0
2016-06-04T01:54:03.966Z,0
2016-06-04T01:54:49.798Z,0
2016-06-04T01:55:49.394Z,0
2016-06-04T01:56:49.835Z,0
2016-06-04T01:57:49.869Z,0
2016-06-04T01:58:49.871Z,0
2016-06-04T01:59:49.904Z,0
2016-06-04T02:00:49.940Z,0
2016-06-04T02:02:04.160Z,0
2016-06-04T02:02:49.990Z,0
2016-06-04T02:03:50.010Z,0
2016-06-04T02:04:50.059Z,0
2016-06-04T02:06:04.233Z,0
2016-06-04T02:07:50.114Z,0
2016-06-04T02:08:50.116Z,0
2016-06-04T02:09:50.151Z,0
2016-06-04T02:10:50.623Z,0
2016-06-04T02:12:50.237Z,0
2016-06-04T02:13:50.270Z,0
2016-06-04T02:14:50.289Z,0
2016-06-04T02:15:50.322Z,0
2016-06-04T02:16:50.325Z,0
2016-06-04T02:17:50.391Z,0
2016-06-04T02:18:50.363Z,0
2016-06-04T02:19:50.255Z,0
2016-06-04T02:20:50.414Z,0
2016-06-04T02:22:04.652Z,0
2016-06-04T02:23:18.936Z,0
2016-06-04T02:23:50.502Z,0
2016-06-04T02:25:04.707Z,0
2016-06-04T02:25:50.771Z,0
2016-06-04T02:26:50.821Z,0
2016-06-04T02:27:50.590Z,0
2016-06-04T02:29:04.810Z,0
2016-06-04T02:30:04.829Z,0
2016-06-04T02:30:50.660Z,0
2016-06-04T02:31:50.694Z,0
2016-06-04T02:32:50.712Z,0
2016-06-04T02:33:50.746Z,0
2016-06-04T02:35:50.815Z,0
2016-06-04T02:37:05.004Z,0
2016-06-04T02:37:50.834Z,0
2016-06-04T02:38:50.885Z,5
2016-06-04T02:40:50.640Z,5
2016-06-04T02:41:51.268Z,5
2016-06-04T02:43:05.145Z,5
2016-06-04T02:43:50.992Z,5
2016-06-04T02:45:05.214Z,5
2016-06-04T02:45:51.044Z,5
2016-06-04T02:46:51.063Z,5
2016-06-04T02:47:51.096Z,5
2016-06-04T02:49:05.302Z,10
2016-06-04T02:50:05.305Z,10
2016-06-04T02:50:51.152Z,10
2016-06-04T02:51:51.169Z,10
2016-06-04T02:52:51.204Z,10
2016-06-04T02:53:51.222Z,10
2016-06-04T02:54:51.256Z,10
2016-06-04T02:56:52.183Z,15
2016-06-04T02:58:05.513Z,15
2016-06-04T02:58:51.360Z,15
2016-06-04T02:59:51.379Z,15
2016-06-04T03:00:51.444Z,15
2016-06-04T03:01:51.431Z,20
2016-06-04T03:02:51.481Z,20
2016-06-04T03:03:51.499Z,20
2016-06-04T03:06:05.707Z,25
2016-06-04T03:06:51.538Z,25
2016-06-04T03:07:51.557Z,25
2016-06-04T03:09:05.793Z,25
2016-06-04T03:09:51.609Z,25
2016-06-04T03:10:52.064Z,30
2016-06-04T03:12:20.145Z,30
2016-06-04T03:12:51.711Z,30
2016-06-04T03:13:51.745Z,30
2016-06-04T03:14:51.747Z,35
2016-06-04T03:15:51.766Z,35
2016-06-04T03:17:05.972Z,35
2016-06-04T03:18:05.989Z,40
2016-06-04T03:18:51.837Z,40
2016-06-04T03:19:51.855Z,40
2016-06-04T03:20:51.888Z,40
2016-06-04T03:22:06.111Z,45
2016-06-04T03:23:06.128Z,45
2016-06-04T03:24:06.147Z,45
2016-06-04T03:25:06.196Z,50
2016-06-04T03:25:52.246Z,50
2016-06-04T03:26:53.342Z,50
2016-06-04T03:27:52.049Z,50
2016-06-04T03:28:52.066Z,55
2016-06-04T03:29:52.100Z,55
2016-06-04T03:30:52.119Z,55
2016-06-04T03:31:52.153Z,55
2016-06-04T03:32:52.170Z,55
2016-06-04T03:33:52.190Z,60
2016-06-04T03:35:06.410Z,60
2016-06-04T03:36:06.445Z,60
2016-06-04T03:36:52.290Z,65
2016-06-04T03:37:52.309Z,65
2016-06-04T03:39:06.515Z,75
2016-06-04T03:39:52.346Z,80
2016-06-04T03:41:06.567Z,95
2016-06-04T03:42:06.601Z,105
2016-06-04T03:42:52.416Z,95
2016-06-04T03:43:52.450Z,90
2016-06-04T03:44:52.469Z,85
2016-06-04T03:46:06.518Z,85
2016-06-04T03:46:52.537Z,85
2016-06-04T03:48:06.727Z,95
2016-06-04T03:48:52.573Z,95
2016-06-04T03:49:52.591Z,95
2016-06-04T03:51:06.813Z,95
2016-06-04T03:51:52.658Z,95
2016-06-04T03:52:52.662Z,100
2016-06-04T03:53:52.696Z,100
2016-06-04T03:54:52.714Z,105
2016-06-04T03:55:53.998Z,110
2016-06-04T03:57:06.954Z,110
2016-06-04T03:58:06.972Z,110
2016-06-04T03:58:52.803Z,115
2016-06-04T03:59:52.837Z,120
2016-06-04T04:01:52.890Z,125
2016-06-04T04:02:52.908Z,125
2016-06-04T04:03:52.941Z,125
2016-06-04T04:04:52.960Z,130
2016-06-04T04:05:52.994Z,135
2016-06-04T04:06:53.012Z,145
2016-06-04T04:07:53.031Z,145
2016-06-04T04:08:53.048Z,145
2016-06-04T04:09:53.067Z,220
2016-06-04T04:10:53.320Z,430
2016-06-04T04:12:07.307Z,570
2016-06-04T04:12:53.169Z,575
2016-06-04T04:13:53.187Z,600
2016-06-04T04:14:53.221Z,615
2016-06-04T04:16:07.427Z,630
2016-06-04T04:16:53.258Z,630
2016-06-04T04:17:53.276Z,520
2016-06-04T04:18:53.294Z,490
2016-06-04T04:19:53.344Z,565
2016-06-04T04:21:53.397Z,650
2016-06-04T04:22:53.430Z,660
2016-06-04T04:24:07.620Z,655
2016-06-04T04:25:53.720Z,700
2016-06-04T04:26:54.269Z,735
2016-06-04T04:27:53.553Z,745
2016-06-04T04:28:53.588Z,740
2016-06-04T04:29:53.621Z,750
2016-06-04T04:30:53.638Z,735
2016-06-04T04:31:53.688Z,765
2016-06-04T04:32:53.691Z,810
2016-06-04T04:33:53.726Z,820
2016-06-04T04:34:53.603Z,820
2016-06-04T04:35:53.777Z,830
2016-06-04T04:36:53.827Z,830
2016-06-04T04:37:53.861Z,865
2016-06-04T04:38:53.896Z,855
2016-06-04T04:40:07.945Z,850
2016-06-04T04:40:53.791Z,870
2016-06-04T04:41:53.856Z,885
2016-06-04T04:43:08.203Z,925
2016-06-04T04:44:08.237Z,925
2016-06-04T04:44:54.068Z,915
2016-06-04T04:45:54.117Z,895
2016-06-04T04:47:54.153Z,885
2016-06-04T04:48:54.187Z,940
2016-06-04T04:49:54.190Z,985
2016-06-04T04:50:54.240Z,995
2016-06-04T04:51:54.274Z,1000
2016-06-04T04:52:54.323Z,1020
2016-06-04T04:53:54.342Z,875
2016-06-04T04:55:08.579Z,705
2016-06-04T04:56:09.066Z,635
2016-06-04T04:56:54.818Z,655
2016-06-04T04:57:54.509Z,800
2016-06-04T04:58:54.496Z,945
2016-06-04T05:00:22.904Z,1005
2016-06-04T05:00:54.579Z,1020
2016-06-04T05:01:54.613Z,1015
2016-06-04T05:02:54.616Z,1030
2016-06-04T05:04:08.838Z,1015
2016-06-04T05:04:54.668Z,1000
2016-06-04T05:05:54.718Z,995
2016-06-04T05:06:54.752Z,955
2016-06-04T05:07:54.785Z,900
2016-06-04T05:08:54.835Z,930
2016-06-04T05:09:54.869Z,960
2016-06-04T05:11:09.934Z,810
2016-06-04T05:11:54.921Z,760
2016-06-04T05:12:54.956Z,1040
2016-06-04T05:13:54.974Z,1060
2016-06-04T05:14:55.007Z,1025
2016-06-04T05:16:23.416Z,620
2016-06-04T05:16:54.920Z,830
2016-06-04T05:17:55.140Z,1035
2016-06-04T05:18:55.159Z,945
2016-06-04T05:19:55.178Z,1010
2016-06-04T05:20:55.196Z,1090
2016-06-04T05:21:55.245Z,1155
2016-06-04T05:22:55.294Z,1165
2016-06-04T05:23:55.314Z,1140
2016-06-04T05:24:55.347Z,1180
2016-06-04T05:25:55.522Z,1210
2016-06-04T05:26:56.946Z,1205
2016-06-04T05:27:55.449Z,1220
2016-06-04T05:28:55.499Z,1190
2016-06-04T05:29:55.516Z,1035
2016-06-04T05:32:09.772Z,1120
2016-06-04T05:32:55.728Z,1135
2016-06-04T05:33:55.652Z,1140
2016-06-04T05:35:09.890Z,1160
2016-06-04T05:35:55.735Z,1190
2016-06-04T05:36:55.755Z,1200
2016-06-04T05:37:55.804Z,1180
2016-06-04T05:38:55.666Z,1180
2016-06-04T05:40:10.044Z,1215
2016-06-04T05:40:55.921Z,1200
2016-06-04T05:41:56.440Z,1235
2016-06-04T05:42:55.973Z,1225
2016-06-04T05:43:55.851Z,1170
2016-06-04T05:45:10.229Z,1015
2016-06-04T05:46:10.278Z,765
2016-06-04T05:47:10.297Z,635
2016-06-04T05:47:56.143Z,940
2016-06-04T05:48:56.193Z,1090
2016-06-04T05:49:56.070Z,905
2016-06-04T05:50:56.120Z,1095
2016-06-04T05:51:56.295Z,985
2016-06-04T05:53:56.362Z,765
2016-06-04T05:54:56.397Z,915
2016-06-04T05:55:56.446Z,980
2016-06-04T05:56:57.355Z,880
2016-06-04T05:57:56.498Z,760
2016-06-04T05:58:56.548Z,540
2016-06-04T05:59:56.566Z,495
2016-06-04T06:01:10.819Z,555
2016-06-04T06:01:56.633Z,440
2016-06-04T06:02:56.700Z,405
2016-06-04T06:03:56.718Z,435
2016-06-04T06:04:56.752Z,440
2016-06-04T06:06:56.819Z,1045
2016-06-04T06:07:56.853Z,495
2016-06-04T06:08:56.887Z,510
2016-06-04T06:10:56.955Z,675
2016-06-04T06:11:57.582Z,780
2016-06-04T06:12:57.007Z,920
2016-06-04T06:13:57.057Z,875
2016-06-04T06:14:57.076Z,665
2016-06-04T06:15:57.125Z,480
2016-06-04T06:16:57.159Z,445
2016-06-04T06:17:57.209Z,505
2016-06-04T06:19:11.429Z,445
2016-06-04T06:20:11.448Z,445
2016-06-04T06:20:57.295Z,435
2016-06-04T06:22:11.516Z,435
2016-06-04T06:22:57.362Z,420
2016-06-04T06:23:57.396Z,415
2016-06-04T06:24:57.430Z,430
2016-06-04T06:25:57.496Z,530
2016-06-04T06:26:57.764Z,670
2016-06-04T06:27:57.516Z,575
2016-06-04T06:28:57.566Z,1090
2016-06-04T06:29:57.584Z,1285
2016-06-04T06:30:57.649Z,1275
2016-06-04T06:31:57.668Z,1235
2016-06-04T06:33:11.889Z,1225
2016-06-04T06:33:57.736Z,1260
2016-06-04T06:35:12.035Z,1235
2016-06-04T06:35:57.804Z,1195
2016-06-04T06:36:57.666Z,1200
2016-06-04T06:38:12.059Z,1210
2016-06-04T06:38:57.890Z,1185
2016-06-04T06:39:57.940Z,1145
2016-06-04T06:40:58.426Z,1165
2016-06-04T06:41:58.882Z,1150
2016-06-04T06:42:58.026Z,1120
2016-06-04T06:43:58.075Z,1105
2016-06-04T06:44:58.109Z,1110
2016-06-04T06:46:26.534Z,1085
2016-06-04T06:46:58.021Z,1070
2016-06-04T06:47:58.351Z,1030
2016-06-04T06:49:12.448Z,1025
2016-06-04T06:49:58.309Z,1000
2016-06-04T06:51:12.532Z,950
2016-06-04T06:51:58.378Z,915
2016-06-04T06:52:58.396Z,900
2016-06-04T06:53:58.445Z,885
2016-06-04T06:55:12.667Z,845
2016-06-04T06:55:58.826Z,820
2016-06-04T06:56:59.953Z,790
2016-06-04T06:57:58.597Z,760
2016-06-04T06:58:58.631Z,740
2016-06-04T06:59:58.681Z,710
2016-06-04T07:00:58.700Z,685
2016-06-04T07:01:58.733Z,680
2016-06-04T07:02:58.783Z,655
2016-06-04T07:03:58.816Z,645
2016-06-04T07:04:58.850Z,655
2016-06-04T07:06:13.088Z,660
2016-06-04T07:07:13.106Z,655
2016-06-04T07:07:59.108Z,665
2016-06-04T07:09:13.188Z,675
2016-06-04T07:09:59.035Z,680
2016-06-04T07:11:13.944Z,730
2016-06-04T07:12:00.321Z,800
2016-06-04T07:13:13.340Z,1050
2016-06-04T07:13:59.188Z,1275
2016-06-04T07:14:59.065Z,1390
2016-06-04T07:15:59.395Z,1385
2016-06-04T07:16:59.289Z,1390
2016-06-04T07:18:59.373Z,1305
2016-06-04T07:19:59.437Z,1265
2016-06-04T07:22:13.537Z,1110
2016-06-04T07:22:59.524Z,1150
2016-06-04T07:23:59.573Z,1155
2016-06-04T07:24:59.606Z,1130
2016-06-04T07:25:59.360Z,1135
2016-06-04T07:27:59.709Z,1130
2016-06-04T07:28:59.775Z,1080
2016-06-04T07:29:59.777Z,1115
2016-06-04T07:31:14.014Z,1065
2016-06-04T07:31:59.860Z,1035
2016-06-04T07:33:14.082Z,1105
2016-06-04T07:33:59.928Z,820
2016-06-04T07:35:14.291Z,1045
2016-06-04T07:36:00.074Z,985
2016-06-04T07:37:59.939Z,960
2016-06-04T07:39:14.161Z,975
2016-06-04T07:40:00.163Z,970
2016-06-04T07:41:00.650Z,955
2016-06-04T07:42:00.685Z,945
2016-06-04T07:43:00.281Z,940
2016-06-04T07:44:14.502Z,955
2016-06-04T07:45:00.348Z,955
2016-06-04T07:46:00.398Z,935
2016-06-04T07:47:00.432Z,940
2016-06-04T07:48:00.466Z,975
2016-06-04T07:49:00.343Z,940
2016-06-04T07:50:00.565Z,960
2016-06-04T07:51:00.599Z,965
2016-06-04T07:52:00.633Z,930
2016-06-04T07:53:00.667Z,955
2016-06-04T07:54:14.888Z,930
2016-06-04T07:55:00.735Z,980
2016-06-04T07:56:02.769Z,800
2016-06-04T07:57:01.740Z,895
2016-06-04T07:58:00.837Z,935
2016-06-04T07:59:00.980Z,805
2016-06-04T08:00:00.764Z,920
2016-06-04T08:01:00.954Z,740
2016-06-04T08:02:01.003Z,770
2016-06-04T08:03:01.038Z,900
2016-06-04T08:04:15.259Z,460
2016-06-04T08:05:15.293Z,495
2016-06-04T08:06:01.139Z,610
2016-06-04T08:07:01.189Z,815
2016-06-04T08:08:15.255Z,780
2016-06-04T08:09:01.257Z,695
2016-06-04T08:10:15.478Z,755
2016-06-04T08:12:01.374Z,725
2016-06-04T08:13:01.893Z,730
2016-06-04T08:14:02.426Z,730
2016-06-04T08:15:01.477Z,730
2016-06-04T08:16:01.541Z,720
2016-06-04T08:17:01.560Z,720
2016-06-04T08:18:01.593Z,720
2016-06-04T08:19:15.659Z,710
2016-06-04T08:20:15.849Z,695
2016-06-04T08:21:01.695Z,685
2016-06-04T08:22:01.760Z,640
2016-06-04T08:23:15.966Z,635
2016-06-04T08:24:16.032Z,620
2016-06-04T08:25:01.862Z,610
2016-06-04T08:26:17.162Z,590
2016-06-04T08:27:02.024Z,595
2016-06-04T08:28:01.980Z,580
2016-06-04T08:29:02.014Z,580
2016-06-04T08:30:02.047Z,565
2016-06-04T08:31:02.066Z,580
2016-06-04T08:32:02.116Z,570
2016-06-04T08:33:02.164Z,560
2016-06-04T08:34:02.200Z,555
2016-06-04T08:35:02.217Z,535
2016-06-04T08:36:02.282Z,525
2016-06-04T08:37:02.425Z,515
2016-06-04T08:38:02.772Z,505
2016-06-04T08:39:02.368Z,495
2016-06-04T08:40:02.402Z,495
2016-06-04T08:41:16.624Z,490
2016-06-04T08:42:16.876Z,500
2016-06-04T08:43:03.473Z,490
2016-06-04T08:44:02.555Z,490
2016-06-04T08:45:16.776Z,490
2016-06-04T08:46:02.622Z,485
2016-06-04T08:47:02.656Z,480
2016-06-04T08:48:02.705Z,475
2016-06-04T08:49:16.927Z,475
2016-06-04T08:50:16.960Z,475
2016-06-04T08:51:02.807Z,475
2016-06-04T08:52:02.857Z,475
2016-06-04T08:53:02.875Z,470
2016-06-04T08:54:02.925Z,475
2016-06-04T08:55:02.959Z,465
2016-06-04T08:56:17.180Z,465
2016-06-04T08:57:17.229Z,465
2016-06-04T08:58:03.139Z,465
2016-06-04T08:59:03.250Z,465
2016-06-04T09:00:03.128Z,460
2016-06-04T09:01:03.162Z,460
2016-06-04T09:02:03.212Z,460
2016-06-04T09:03:03.230Z,455
2016-06-04T09:04:03.295Z,460
2016-06-04T09:05:17.501Z,455
2016-06-04T09:06:03.348Z,460
2016-06-04T09:07:03.381Z,455
2016-06-04T09:08:17.619Z,450
2016-06-04T09:09:03.450Z,450
2016-06-04T09:10:03.343Z,450
2016-06-04T09:11:03.549Z,435
2016-06-04T09:12:03.677Z,440
2016-06-04T09:13:04.694Z,435
2016-06-04T09:14:17.838Z,425
2016-06-04T09:15:03.668Z,425
2016-06-04T09:16:03.719Z,430
2016-06-04T09:17:03.752Z,420
2016-06-04T09:18:03.660Z,415
2016-06-04T09:19:03.821Z,405
2016-06-04T09:20:18.041Z,395
2016-06-04T09:21:03.888Z,385
2016-06-04T09:22:03.922Z,375
2016-06-04T09:23:03.799Z,365
2016-06-04T09:24:04.006Z,360
2016-06-04T09:25:04.040Z,350
2016-06-04T09:26:18.276Z,350
2016-06-04T09:27:03.967Z,350
2016-06-04T09:28:04.484Z,355
2016-06-04T09:29:18.363Z,345
2016-06-04T09:30:04.209Z,345
2016-06-04T09:31:18.445Z,345
2016-06-04T09:32:04.277Z,340
2016-06-04T09:33:04.327Z,340
2016-06-04T09:34:04.345Z,340
2016-06-04T09:35:04.395Z,340
2016-06-04T09:37:04.322Z,335
2016-06-04T09:38:04.497Z,335
2016-06-04T09:39:04.530Z,330
2016-06-04T09:40:04.580Z,330
2016-06-04T09:41:18.802Z,330
2016-06-04T09:42:18.836Z,335
2016-06-04T09:43:04.760Z,335
2016-06-04T09:44:19.778Z,330
2016-06-04T09:45:18.937Z,330
2016-06-04T09:46:04.783Z,330
2016-06-04T09:47:04.818Z,325
2016-06-04T09:48:04.851Z,320
2016-06-04T09:49:04.901Z,320
2016-06-04T09:51:04.954Z,320
2016-06-04T09:52:05.002Z,320
2016-06-04T09:53:05.036Z,320
2016-06-04T09:54:05.055Z,320
2016-06-04T09:55:04.964Z,320
2016-06-04T09:56:19.326Z,325
2016-06-04T09:57:05.187Z,325
2016-06-04T09:58:06.691Z,325
2016-06-04T09:59:05.865Z,325
2016-06-04T10:00:19.462Z,325
2016-06-04T10:01:22.448Z,325
2016-06-04T10:02:05.342Z,320
2016-06-04T10:04:05.410Z,320
2016-06-04T10:05:05.320Z,320
2016-06-04T10:06:05.523Z,325
2016-06-04T10:07:05.600Z,325
2016-06-04T10:08:19.850Z,330
2016-06-04T10:09:05.708Z,330
2016-06-04T10:10:05.789Z,330
2016-06-04T10:11:05.833Z,330
2016-06-04T10:12:05.862Z,325
2016-06-04T10:13:06.469Z,325
2016-06-04T10:14:06.809Z,310
2016-06-04T10:15:06.005Z,325
2016-06-04T10:16:06.058Z,325
2016-06-04T10:17:20.251Z,330
2016-06-04T10:18:05.970Z,330
2016-06-04T10:19:06.154Z,330
2016-06-04T10:20:06.045Z,325
2016-06-04T10:21:06.066Z,320
2016-06-04T10:23:06.343Z,320
2016-06-04T10:24:06.187Z,205
2016-06-04T10:25:06.383Z,320
2016-06-04T10:26:06.401Z,325
2016-06-04T10:27:06.292Z,325
2016-06-04T10:28:06.829Z,325
2016-06-04T10:29:06.360Z,325
2016-06-04T10:30:06.536Z,320
2016-06-04T10:31:20.791Z,315
2016-06-04T10:32:20.794Z,325
2016-06-04T10:33:06.656Z,315
2016-06-04T10:34:06.690Z,320
2016-06-04T10:35:20.896Z,320
2016-06-04T10:36:20.929Z,325
2016-06-04T10:37:06.773Z,320
2016-06-04T10:38:06.807Z,325
2016-06-04T10:39:06.841Z,325
2016-06-04T10:40:21.065Z,320
2016-06-04T10:41:06.909Z,320
2016-06-04T10:42:06.943Z,310
2016-06-04T10:44:07.779Z,310
2016-06-04T10:45:07.154Z,310
2016-06-04T10:46:06.923Z,305
2016-06-04T10:47:07.128Z,310
2016-06-04T10:49:07.259Z,205
2016-06-04T10:50:07.214Z,280
2016-06-04T10:51:07.248Z,300
2016-06-04T10:52:07.283Z,300
2016-06-04T10:54:21.541Z,275
2016-06-04T10:55:07.275Z,250
2016-06-04T10:56:21.608Z,220
2016-06-04T10:57:21.642Z,265
2016-06-04T10:58:08.676Z,295
2016-06-04T11:00:07.555Z,295
2016-06-04T11:02:21.813Z,285
2016-06-04T11:03:07.656Z,230
2016-06-04T11:04:36.083Z,295
2016-06-04T11:05:07.724Z,285
2016-06-04T11:06:07.774Z,290
2016-06-04T11:07:07.776Z,290
2016-06-04T11:08:36.204Z,295
2016-06-04T11:09:07.860Z,285
2016-06-04T11:10:07.893Z,285
2016-06-04T11:11:07.912Z,290
2016-06-04T11:12:07.945Z,290
2016-06-04T11:13:09.342Z,290
2016-06-04T11:14:08.514Z,290
2016-06-04T11:15:08.048Z,290
2016-06-04T11:16:08.082Z,290
2016-06-04T11:17:08.116Z,295
2016-06-04T11:18:08.150Z,295
2016-06-04T11:19:08.199Z,295
2016-06-04T11:20:22.408Z,290
2016-06-04T11:21:08.251Z,290
2016-06-04T11:22:08.301Z,290
2016-06-04T11:23:08.319Z,290
2016-06-04T11:24:08.353Z,290
2016-06-04T11:25:08.387Z,285
2016-06-04T11:26:22.611Z,285
2016-06-04T11:27:09.033Z,285
2016-06-04T11:28:08.520Z,275
2016-06-04T11:29:08.508Z,275
2016-06-04T11:30:22.747Z,265
2016-06-04T11:31:08.622Z,260
2016-06-04T11:32:08.609Z,255
2016-06-04T11:33:08.643Z,255
2016-06-04T11:34:08.677Z,255
2016-06-04T11:35:08.727Z,255
2016-06-04T11:36:37.122Z,255
2016-06-04T11:37:08.638Z,255
2016-06-04T11:38:08.812Z,255
2016-06-04T11:39:08.847Z,255
2016-06-04T11:40:08.880Z,255
2016-06-04T11:41:23.589Z,255
2016-06-04T11:42:09.448Z,250
2016-06-04T11:43:08.982Z,250
2016-06-04T11:44:09.000Z,250
2016-06-04T11:45:09.051Z,255
2016-06-04T11:46:09.068Z,255
2016-06-04T11:47:09.102Z,255
2016-06-04T11:48:09.137Z,255
2016-06-04T11:49:09.171Z,250
2016-06-04T11:50:09.189Z,250
2016-06-04T11:51:23.429Z,255
2016-06-04T11:52:23.447Z,255
2016-06-04T11:53:09.306Z,250
2016-06-04T11:55:23.548Z,245
2016-06-04T11:56:09.533Z,245
2016-06-04T11:57:09.582Z,245
2016-06-04T11:58:09.461Z,245
2016-06-04T12:00:09.528Z,240
2016-06-04T12:01:09.578Z,240
2016-06-04T12:02:09.580Z,240
2016-06-04T12:03:09.630Z,240
2016-06-04T12:04:23.995Z,240
2016-06-04T12:05:23.872Z,240
2016-06-04T12:06:09.716Z,205
2016-06-04T12:07:23.784Z,245
2016-06-04T12:08:23.819Z,245
2016-06-04T12:09:09.819Z,250
2016-06-04T12:10:09.899Z,250
2016-06-04T12:11:10.527Z,255
2016-06-04T12:12:09.951Z,250
2016-06-04T12:13:09.798Z,255
2016-06-04T12:14:09.832Z,250
2016-06-04T12:15:10.021Z,250
2016-06-04T12:16:10.040Z,245
2016-06-04T12:17:10.293Z,245
2016-06-04T12:18:10.107Z,240
2016-06-04T12:19:10.142Z,245
2016-06-04T12:20:10.176Z,235
2016-06-04T12:21:24.384Z,220
2016-06-04T12:22:10.228Z,230
2016-06-04T12:23:10.293Z,225
2016-06-04T12:24:10.295Z,225
2016-06-04T12:25:10.330Z,230
2016-06-04T12:26:10.348Z,240
2016-06-04T12:28:10.292Z,225
2016-06-04T12:29:10.637Z,235
2016-06-04T12:30:10.515Z,230
2016-06-04T12:31:10.517Z,225
2016-06-04T12:32:10.567Z,230
2016-06-04T12:33:10.586Z,230
2016-06-04T12:34:10.635Z,220
2016-06-04T12:35:24.860Z,175
2016-06-04T12:36:24.878Z,215
2016-06-04T12:37:10.706Z,220
2016-06-04T12:38:10.755Z,230
2016-06-04T12:39:24.980Z,215
2016-06-04T12:40:10.824Z,225
2016-06-04T12:41:10.841Z,225
2016-06-04T12:42:10.891Z,225
2016-06-04T12:43:11.613Z,230
2016-06-04T12:44:10.959Z,225
2016-06-04T12:45:10.993Z,235
2016-06-04T12:46:11.011Z,230
2016-06-04T12:47:11.030Z,225
2016-06-04T12:48:25.285Z,215
2016-06-04T12:49:11.098Z,215
2016-06-04T12:50:11.350Z,220
2016-06-04T12:51:11.165Z,220
2016-06-04T12:52:11.199Z,225
2016-06-04T12:53:25.267Z,230
2016-06-04T12:54:11.267Z,225
2016-06-04T12:55:25.476Z,230
2016-06-04T12:56:26.291Z,220
2016-06-04T12:57:11.197Z,225
2016-06-04T12:58:11.419Z,220
2016-06-04T12:59:11.422Z,220
2016-06-04T13:00:11.486Z,225
2016-06-04T13:01:11.505Z,215
2016-06-04T13:02:25.558Z,220
2016-06-04T13:03:11.573Z,220
2016-06-04T13:04:11.575Z,215
2016-06-04T13:05:11.609Z,220
2016-06-04T13:06:11.691Z,220
2016-06-04T13:07:25.867Z,220
2016-06-04T13:08:11.555Z,220
2016-06-04T13:09:25.935Z,225
2016-06-04T13:10:11.779Z,220
2016-06-04T13:11:25.988Z,220
2016-06-04T13:12:13.613Z,220
2016-06-04T13:13:13.835Z,220
2016-06-04T13:14:12.993Z,230
2016-06-04T13:15:11.917Z,225
2016-06-04T13:16:11.968Z,230
2016-06-04T13:17:12.923Z,230
2016-06-04T13:18:11.863Z,225
2016-06-04T13:19:12.069Z,225
2016-06-04T13:20:12.103Z,220
2016-06-04T13:21:11.964Z,225
2016-06-04T13:22:12.999Z,225
2016-06-04T13:24:26.412Z,225
2016-06-04T13:25:26.448Z,215
2016-06-04T13:28:12.343Z,215
2016-06-04T13:29:12.377Z,220
2016-06-04T13:30:12.395Z,220
2016-06-04T13:31:26.620Z,225
2016-06-04T13:32:12.479Z,125
2016-06-04T13:33:12.497Z,215
2016-06-04T13:34:12.516Z,220
2016-06-04T13:35:12.550Z,210
2016-06-04T13:36:12.583Z,215
2016-06-04T13:37:13.852Z,215
2016-06-04T13:38:12.652Z,210
2016-06-04T13:39:12.686Z,210
2016-06-04T13:40:12.703Z,210
2016-06-04T13:41:12.768Z,205
2016-06-04T13:42:41.149Z,170
2016-06-04T13:43:13.852Z,155
2016-06-04T13:44:14.121Z,205
2016-06-04T13:45:12.874Z,205
2016-06-04T13:46:12.751Z,205
2016-06-04T13:47:12.785Z,185
2016-06-04T13:48:12.960Z,120
2016-06-04T13:49:13.009Z,195
2016-06-04T13:50:13.027Z,135
2016-06-04T13:51:27.251Z,195
2016-06-04T13:52:13.110Z,200
2016-06-04T13:53:13.113Z,195
2016-06-04T13:54:27.337Z,200
2016-06-04T13:55:13.181Z,200
2016-06-04T13:56:27.406Z,150
2016-06-04T13:57:13.328Z,160
2016-06-04T13:58:14.440Z,135
2016-06-04T13:59:13.161Z,125
2016-06-04T14:00:13.336Z,200
2016-06-04T14:02:13.403Z,200
2016-06-04T14:03:13.437Z,200
2016-06-04T14:04:27.645Z,200
2016-06-04T14:05:27.680Z,200
2016-06-04T14:06:13.586Z,200
2016-06-04T14:07:28.139Z,200
2016-06-04T14:08:27.781Z,200
2016-06-04T14:09:13.610Z,200
2016-06-04T14:10:13.659Z,200
2016-06-04T14:11:13.974Z,200
2016-06-04T14:12:15.758Z,200
2016-06-04T14:13:27.936Z,200
2016-06-04T14:14:27.954Z,200
2016-06-04T14:15:13.813Z,195
2016-06-04T14:16:13.832Z,195
2016-06-04T14:17:13.865Z,195
2016-06-04T14:18:13.884Z,195
2016-06-04T14:19:13.933Z,195
2016-06-04T14:20:13.810Z,195
2016-06-04T14:21:28.176Z,195
2016-06-04T14:23:14.053Z,195
2016-06-04T14:24:14.071Z,190
2016-06-04T14:25:13.949Z,190
2016-06-04T14:26:13.999Z,190
2016-06-04T14:27:14.658Z,190
2016-06-04T14:28:28.398Z,190
2016-06-04T14:29:14.242Z,190
2016-06-04T14:30:28.450Z,190
2016-06-04T14:31:28.609Z,190
2016-06-04T14:32:16.203Z,190
2016-06-04T14:33:14.361Z,185
2016-06-04T14:34:14.381Z,185